createdAt,value
2022-11-16T00:00:18.010Z,0.00
2022-11-16T00:01:18.261Z,0.00
2022-11-16T00:02:18.518Z,0.00
2022-11-16T00:03:18.793Z,0.00
2022-11-16T00:04:19.035Z,0.00
2022-11-16T00:05:21.155Z,0.00
2022-11-16T00:06:20.593Z,0.00
2022-11-16T00:07:19.943Z,0.00
2022-11-16T00:08:20.189Z,0.00
2022-11-16T00:09:20.465Z,0.00
2022-11-16T00:10:20.690Z,0.00
2022-11-16T00:11:20.933Z,0.00
2022-11-16T00:12:21.153Z,0.00
2022-11-16T00:13:21.523Z,0.00
2022-11-16T00:14:21.722Z,0.00
2022-11-16T00:15:22.068Z,0.00
2022-11-16T00:16:22.283Z,0.00
2022-11-16T00:17:22.664Z,0.00
2022-11-16T00:18:22.894Z,0.00
2022-11-16T00:19:23.134Z,0.00
2022-11-16T00:20:23.367Z,0.00
2022-11-16T00:21:23.625Z,0.00
2022-11-16T00:22:23.827Z,0.00
2022-11-16T00:23:24.198Z,0.00
2022-11-16T00:24:24.465Z,0.00
2022-11-16T00:25:24.671Z,0.00
2022-11-16T00:26:25.018Z,0.00
2022-11-16T00:27:25.247Z,0.00
2022-11-16T00:28:25.607Z,0.00
2022-11-16T00:29:25.849Z,0.00
2022-11-16T00:30:26.120Z,0.00
2022-11-16T00:31:26.348Z,0.00
2022-11-16T00:32:26.586Z,0.00
2022-11-16T00:33:26.829Z,0.00
2022-11-16T00:34:27.052Z,0.00
2022-11-16T00:35:27.405Z,0.00
2022-11-16T00:36:27.828Z,0.00
2022-11-16T00:37:28.065Z,0.00
2022-11-16T00:38:28.335Z,0.00
2022-11-16T00:39:28.675Z,0.00
2022-11-16T00:40:28.869Z,0.00
2022-11-16T00:41:29.208Z,0.00
2022-11-16T00:42:29.431Z,0.00
2022-11-16T00:43:29.832Z,0.00
2022-11-16T00:44:30.051Z,0.00
2022-11-16T00:45:30.282Z,0.00
2022-11-16T00:46:30.534Z,0.00
2022-11-16T00:47:30.760Z,0.00
2022-11-16T00:48:31.220Z,0.00
2022-11-16T00:49:31.303Z,0.00
2022-11-16T00:50:31.567Z,0.00
2022-11-16T00:51:31.833Z,0.00
2022-11-16T00:52:32.031Z,0.00
2022-11-16T00:53:32.314Z,0.00
2022-11-16T00:54:32.553Z,0.00
2022-11-16T00:55:32.785Z,0.00
2022-11-16T00:56:33.014Z,0.00
2022-11-16T00:57:33.245Z,0.00
2022-11-16T00:58:33.736Z,0.00
2022-11-16T00:59:33.745Z,0.00
2022-11-16T01:00:33.965Z,0.00
2022-11-16T01:01:34.400Z,0.00
2022-11-16T01:02:34.586Z,0.00
2022-11-16T01:03:34.816Z,0.00
2022-11-16T01:04:35.098Z,0.00
2022-11-16T01:05:35.326Z,0.00
2022-11-16T01:06:35.556Z,0.00
2022-11-16T01:07:35.832Z,0.00
2022-11-16T01:08:36.544Z,0.00
2022-11-16T01:09:36.361Z,0.00
2022-11-16T01:10:36.597Z,0.00
2022-11-16T01:11:36.857Z,0.00
2022-11-16T01:12:37.079Z,0.00
2022-11-16T01:13:37.438Z,0.00
2022-11-16T01:14:37.678Z,0.00
2022-11-16T01:15:37.929Z,0.00
2022-11-16T01:16:38.148Z,0.00
2022-11-16T01:17:38.500Z,0.00
2022-11-16T01:18:38.779Z,0.00
2022-11-16T01:19:39.027Z,0.00
2022-11-16T01:20:39.346Z,0.00
2022-11-16T01:21:39.592Z,0.00
2022-11-16T01:22:39.828Z,0.00
2022-11-16T01:23:40.068Z,0.00
2022-11-16T01:24:40.310Z,0.00
2022-11-16T01:25:40.560Z,0.00
2022-11-16T01:26:40.793Z,0.00
2022-11-16T01:27:41.040Z,0.00
2022-11-16T01:28:41.317Z,0.00
2022-11-16T01:29:41.522Z,0.00
2022-11-16T01:30:41.892Z,0.00
2022-11-16T01:31:42.121Z,0.00
2022-11-16T01:32:42.467Z,0.00
2022-11-16T01:33:42.706Z,0.00
2022-11-16T01:34:42.927Z,0.00
2022-11-16T01:35:43.273Z,0.00
2022-11-16T01:36:43.622Z,0.00
2022-11-16T01:37:43.867Z,0.00
2022-11-16T01:38:44.553Z,0.00
2022-11-16T01:39:44.456Z,0.00
2022-11-16T01:40:44.785Z,0.00
2022-11-16T01:41:45.181Z,0.00
2022-11-16T01:42:45.402Z,0.00
2022-11-16T01:43:45.675Z,0.00
2022-11-16T01:44:45.976Z,0.00
2022-11-16T01:45:46.207Z,0.00
2022-11-16T01:46:46.451Z,0.00
2022-11-16T01:47:46.719Z,0.00
2022-11-16T01:48:46.991Z,0.00
2022-11-16T01:49:47.250Z,0.00
2022-11-16T01:50:47.466Z,0.00
2022-11-16T01:51:47.729Z,0.00
2022-11-16T01:52:47.966Z,0.00
2022-11-16T01:53:48.237Z,0.00
2022-11-16T01:54:48.458Z,0.00
2022-11-16T01:55:48.765Z,0.00
2022-11-16T01:56:48.990Z,0.00
2022-11-16T01:57:49.250Z,0.00
2022-11-16T01:58:49.497Z,0.00
2022-11-16T01:59:49.737Z,0.00
2022-11-16T02:00:50.117Z,0.00
2022-11-16T02:01:50.211Z,0.00
2022-11-16T02:02:50.460Z,0.00
2022-11-16T02:03:50.749Z,0.00
2022-11-16T02:04:50.962Z,0.00
2022-11-16T02:05:51.209Z,0.00
2022-11-16T02:06:51.509Z,0.00
2022-11-16T02:07:51.772Z,0.00
2022-11-16T02:08:52.038Z,0.00
2022-11-16T02:09:52.267Z,0.00
2022-11-16T02:10:52.563Z,0.00
2022-11-16T02:11:52.814Z,0.00
2022-11-16T02:12:53.058Z,0.00
2022-11-16T02:13:53.315Z,0.00
2022-11-16T02:14:53.552Z,0.00
2022-11-16T02:15:53.812Z,0.00
2022-11-16T02:16:54.032Z,0.00
2022-11-16T02:17:54.305Z,0.00
2022-11-16T02:18:54.553Z,0.00
2022-11-16T02:19:54.787Z,0.00
2022-11-16T02:20:55.074Z,0.00
2022-11-16T02:21:55.383Z,0.00
2022-11-16T02:22:55.622Z,0.00
2022-11-16T02:23:55.875Z,0.00
2022-11-16T02:24:56.118Z,0.00
2022-11-16T02:25:56.344Z,0.00
2022-11-16T02:26:56.574Z,0.00
2022-11-16T02:27:56.924Z,0.00
2022-11-16T02:28:57.623Z,0.00
2022-11-16T02:29:57.413Z,0.00
2022-11-16T02:30:57.665Z,0.00
2022-11-16T02:31:57.912Z,0.00
2022-11-16T02:32:58.120Z,0.00
2022-11-16T02:33:58.485Z,0.00
2022-11-16T02:34:58.717Z,0.00
2022-11-16T02:35:59.107Z,0.00
2022-11-16T02:36:59.336Z,0.00
2022-11-16T02:37:59.578Z,0.00
2022-11-16T02:38:59.807Z,0.00
2022-11-16T02:40:00.078Z,0.00
2022-11-16T02:41:00.300Z,0.00
2022-11-16T02:42:00.634Z,0.00
2022-11-16T02:43:01.809Z,0.00
2022-11-16T02:44:01.277Z,0.00
2022-11-16T02:45:01.508Z,0.00
2022-11-16T02:46:01.789Z,0.00
2022-11-16T02:47:01.997Z,0.00
2022-11-16T02:48:02.348Z,0.00
2022-11-16T02:49:02.640Z,0.00
2022-11-16T02:50:02.877Z,0.00
2022-11-16T02:51:03.131Z,0.00
2022-11-16T02:52:03.377Z,0.00
2022-11-16T02:53:03.640Z,0.00
2022-11-16T02:54:03.913Z,0.00
2022-11-16T02:55:04.129Z,0.00
2022-11-16T02:56:04.368Z,0.00
2022-11-16T02:57:04.691Z,0.00
2022-11-16T02:58:05.051Z,0.00
2022-11-16T02:59:05.318Z,0.00
2022-11-16T03:00:05.616Z,0.00
2022-11-16T03:01:05.919Z,0.00
2022-11-16T03:02:06.165Z,0.00
2022-11-16T03:03:06.383Z,0.00
2022-11-16T03:04:06.722Z,0.00
2022-11-16T03:05:06.959Z,0.00
2022-11-16T03:06:07.404Z,0.00
2022-11-16T03:07:07.722Z,0.00
2022-11-16T03:08:07.899Z,0.00
2022-11-16T03:09:08.144Z,0.00
2022-11-16T03:10:08.381Z,0.00
2022-11-16T03:11:08.618Z,0.00
2022-11-16T03:12:08.954Z,0.00
2022-11-16T03:13:09.201Z,0.00
2022-11-16T03:14:09.448Z,0.00
2022-11-16T03:15:09.665Z,0.00
2022-11-16T03:16:10.024Z,0.00
2022-11-16T03:17:11.187Z,0.00
2022-11-16T03:18:10.475Z,0.00
2022-11-16T03:19:10.851Z,0.00
2022-11-16T03:20:11.083Z,0.00
2022-11-16T03:21:11.318Z,0.00
2022-11-16T03:22:11.567Z,0.00
2022-11-16T03:23:11.833Z,0.00
2022-11-16T03:24:12.077Z,0.00
2022-11-16T03:25:12.317Z,0.00
2022-11-16T03:26:12.567Z,0.00
2022-11-16T03:27:12.947Z,0.00
2022-11-16T03:28:13.197Z,0.00
2022-11-16T03:29:13.518Z,0.00
2022-11-16T03:30:13.832Z,0.00
2022-11-16T03:31:14.107Z,0.00
2022-11-16T03:32:14.362Z,0.00
2022-11-16T03:33:14.622Z,0.00
2022-11-16T03:34:14.911Z,0.00
2022-11-16T03:35:15.160Z,0.00
2022-11-16T03:36:15.409Z,0.00
2022-11-16T03:37:15.692Z,0.00
2022-11-16T03:38:16.062Z,0.00
2022-11-16T03:39:16.352Z,0.00
2022-11-16T03:40:16.611Z,0.00
2022-11-16T03:41:16.927Z,0.00
2022-11-16T03:42:17.224Z,0.00
2022-11-16T03:43:17.467Z,0.00
2022-11-16T03:44:17.761Z,0.00
2022-11-16T03:45:18.031Z,0.00
2022-11-16T03:46:18.289Z,0.00
2022-11-16T03:47:18.601Z,0.00
2022-11-16T03:48:19.012Z,0.00
2022-11-16T03:49:19.109Z,0.00
2022-11-16T03:50:19.398Z,0.00
2022-11-16T03:51:19.667Z,0.00
2022-11-16T03:52:19.964Z,0.00
2022-11-16T03:53:20.202Z,0.00
2022-11-16T03:54:20.524Z,0.00
2022-11-16T03:55:20.793Z,0.00
2022-11-16T03:56:21.055Z,0.00
2022-11-16T03:57:21.324Z,0.00
2022-11-16T03:58:21.613Z,0.00
2022-11-16T03:59:22.002Z,0.00
2022-11-16T04:00:22.159Z,0.00
2022-11-16T04:01:22.475Z,0.00
2022-11-16T04:02:22.714Z,0.00
2022-11-16T04:03:23.017Z,0.00
2022-11-16T04:04:23.268Z,0.00
2022-11-16T04:05:23.589Z,0.00
2022-11-16T04:06:23.859Z,0.00
2022-11-16T04:07:24.194Z,0.00
2022-11-16T04:08:24.529Z,0.00
2022-11-16T04:09:24.830Z,0.00
2022-11-16T04:10:25.112Z,0.00
2022-11-16T04:11:25.339Z,0.00
2022-11-16T04:12:25.674Z,0.00
2022-11-16T04:13:25.934Z,0.00
2022-11-16T04:14:26.178Z,0.00
2022-11-16T04:15:26.474Z,0.00
2022-11-16T04:16:26.779Z,0.00
2022-11-16T04:17:27.047Z,0.00
2022-11-16T04:18:27.379Z,0.00
2022-11-16T04:19:27.551Z,0.00
2022-11-16T04:20:27.834Z,0.00
2022-11-16T04:21:28.079Z,0.00
2022-11-16T04:22:28.342Z,0.00
2022-11-16T04:23:28.631Z,0.00
2022-11-16T04:24:28.912Z,0.00
2022-11-16T04:25:29.134Z,0.00
2022-11-16T04:26:29.415Z,0.00
2022-11-16T04:27:29.680Z,0.00
2022-11-16T04:28:29.914Z,0.00
2022-11-16T04:29:30.170Z,0.00
2022-11-16T04:30:30.452Z,0.00
2022-11-16T04:31:30.703Z,0.00
2022-11-16T04:32:30.980Z,0.00
2022-11-16T04:33:31.435Z,0.00
2022-11-16T04:34:31.512Z,0.00
2022-11-16T04:35:31.743Z,0.00
2022-11-16T04:36:32.020Z,0.00
2022-11-16T04:37:32.304Z,0.00
2022-11-16T04:38:33.001Z,0.00
2022-11-16T04:39:32.936Z,0.00
2022-11-16T04:40:33.193Z,0.00
2022-11-16T04:41:33.445Z,0.00
2022-11-16T04:42:33.749Z,0.00
2022-11-16T04:43:34.002Z,0.00
2022-11-16T04:44:34.278Z,0.00
2022-11-16T04:45:34.573Z,0.00
2022-11-16T04:46:34.877Z,0.00
2022-11-16T04:47:35.178Z,0.00
2022-11-16T04:48:35.880Z,0.00
2022-11-16T04:49:35.767Z,0.00
2022-11-16T04:50:36.002Z,0.00
2022-11-16T04:51:36.298Z,0.00
2022-11-16T04:52:36.623Z,0.00
2022-11-16T04:53:36.861Z,0.00
2022-11-16T04:54:37.160Z,0.00
2022-11-16T04:55:37.480Z,0.00
2022-11-16T04:56:37.730Z,0.00
2022-11-16T04:57:45.670Z,0.00
2022-11-16T04:58:38.241Z,0.00
2022-11-16T04:59:38.495Z,0.00
2022-11-16T05:00:38.709Z,0.00
2022-11-16T05:01:39.096Z,0.00
2022-11-16T05:02:39.378Z,0.00
2022-11-16T05:03:39.601Z,0.00
2022-11-16T05:04:39.950Z,0.00
2022-11-16T05:05:40.184Z,0.00
2022-11-16T05:06:40.512Z,0.00
2022-11-16T05:07:40.855Z,0.00
2022-11-16T05:08:41.196Z,0.00
2022-11-16T05:09:41.544Z,0.00
2022-11-16T05:10:41.764Z,0.00
2022-11-16T05:11:42.096Z,0.00
2022-11-16T05:12:42.423Z,0.00
2022-11-16T05:13:42.761Z,0.00
2022-11-16T05:14:43.102Z,0.00
2022-11-16T05:15:43.449Z,0.00
2022-11-16T05:16:43.783Z,0.00
2022-11-16T05:17:44.126Z,0.00
2022-11-16T05:18:44.485Z,0.00
2022-11-16T05:19:44.733Z,0.00
2022-11-16T05:20:45.046Z,0.00
2022-11-16T05:21:45.276Z,0.00
2022-11-16T05:22:45.492Z,0.00
2022-11-16T05:23:45.825Z,0.00
2022-11-16T05:24:46.186Z,0.00
2022-11-16T05:25:46.396Z,0.00
2022-11-16T05:26:46.726Z,0.00
2022-11-16T05:27:47.056Z,0.00
2022-11-16T05:28:47.388Z,0.00
2022-11-16T05:29:47.738Z,0.00
2022-11-16T05:30:47.956Z,0.00
2022-11-16T05:31:48.190Z,0.00
2022-11-16T05:32:48.537Z,0.00
2022-11-16T05:33:48.765Z,0.00
2022-11-16T05:34:49.120Z,0.00
2022-11-16T05:35:49.348Z,0.00
2022-11-16T05:36:49.558Z,0.00
2022-11-16T05:37:49.907Z,0.00
2022-11-16T05:38:55.119Z,0.00
2022-11-16T05:39:51.587Z,0.00
2022-11-16T05:40:50.872Z,0.00
2022-11-16T05:41:51.089Z,0.00
2022-11-16T05:42:51.428Z,0.00
2022-11-16T05:43:51.770Z,0.00
2022-11-16T05:44:52.011Z,0.00
2022-11-16T05:45:52.231Z,0.00
2022-11-16T05:46:52.596Z,0.00
2022-11-16T05:47:52.811Z,0.00
2022-11-16T05:48:53.151Z,0.00
2022-11-16T05:49:53.502Z,0.00
2022-11-16T05:50:53.723Z,0.00
2022-11-16T05:51:54.054Z,0.00
2022-11-16T05:52:54.401Z,0.00
2022-11-16T05:53:54.621Z,0.00
2022-11-16T05:54:54.972Z,0.00
2022-11-16T05:55:55.232Z,0.00
2022-11-16T05:56:55.452Z,0.00
2022-11-16T05:57:55.673Z,0.00
2022-11-16T05:58:56.024Z,0.00
2022-11-16T05:59:56.253Z,0.00
2022-11-16T06:00:56.599Z,0.00
2022-11-16T06:01:56.943Z,0.00
2022-11-16T06:02:57.190Z,0.00
2022-11-16T06:03:57.409Z,0.00
2022-11-16T06:04:57.758Z,0.00
2022-11-16T06:05:57.994Z,0.00
2022-11-16T06:06:58.250Z,0.00
2022-11-16T06:07:58.462Z,0.00
2022-11-16T06:08:58.787Z,0.00
2022-11-16T06:09:59.144Z,0.00
2022-11-16T06:10:59.367Z,0.00
2022-11-16T06:11:59.713Z,0.00
2022-11-16T06:12:59.936Z,0.00
2022-11-16T06:14:00.285Z,0.00
2022-11-16T06:15:00.518Z,0.00
2022-11-16T06:16:00.769Z,0.00
2022-11-16T06:17:00.989Z,0.00
2022-11-16T06:18:01.323Z,0.00
2022-11-16T06:19:01.689Z,0.00
2022-11-16T06:20:02.019Z,0.00
2022-11-16T06:21:02.252Z,0.00
2022-11-16T06:22:02.471Z,0.00
2022-11-16T06:23:02.807Z,0.00
2022-11-16T06:24:03.149Z,0.00
2022-11-16T06:25:03.507Z,0.00
2022-11-16T06:26:03.745Z,0.00
2022-11-16T06:27:03.990Z,0.00
2022-11-16T06:28:07.895Z,0.00
2022-11-16T06:29:04.516Z,0.00
2022-11-16T06:30:04.760Z,0.00
2022-11-16T06:31:04.999Z,0.00
2022-11-16T06:32:05.258Z,0.00
2022-11-16T06:33:05.480Z,0.00
2022-11-16T06:34:05.721Z,0.00
2022-11-16T06:35:05.971Z,0.00
2022-11-16T06:36:06.221Z,0.00
2022-11-16T06:37:06.452Z,0.00
2022-11-16T06:38:06.691Z,0.00
2022-11-16T06:39:06.942Z,0.00
2022-11-16T06:40:07.192Z,0.00
2022-11-16T06:41:07.432Z,0.00
2022-11-16T06:42:07.674Z,0.00
2022-11-16T06:43:07.913Z,0.00
2022-11-16T06:44:08.172Z,0.00
2022-11-16T06:45:08.405Z,0.00
2022-11-16T06:46:08.646Z,0.00
2022-11-16T06:47:08.999Z,0.00
2022-11-16T06:48:09.131Z,0.00
2022-11-16T06:49:09.385Z,0.00
2022-11-16T06:50:09.641Z,0.00
2022-11-16T06:51:09.876Z,0.00
2022-11-16T06:52:10.126Z,0.00
2022-11-16T06:53:10.364Z,0.00
2022-11-16T06:54:10.618Z,0.00
2022-11-16T06:55:10.877Z,0.00
2022-11-16T06:56:11.105Z,0.00
2022-11-16T06:57:11.345Z,0.00
2022-11-16T06:58:11.609Z,0.00
2022-11-16T06:59:11.846Z,0.00
2022-11-16T07:00:12.095Z,0.00
2022-11-16T07:01:12.470Z,0.00
2022-11-16T07:02:12.715Z,0.00
2022-11-16T07:03:12.966Z,5.62
2022-11-16T07:04:13.208Z,5.62
2022-11-16T07:05:13.513Z,5.62
2022-11-16T07:06:13.738Z,5.62
2022-11-16T07:07:14.031Z,5.62
2022-11-16T07:08:14.268Z,5.62
2022-11-16T07:09:14.521Z,5.62
2022-11-16T07:10:14.807Z,5.62
2022-11-16T07:11:15.028Z,5.62
2022-11-16T07:12:15.278Z,5.62
2022-11-16T07:13:15.528Z,5.62
2022-11-16T07:14:15.788Z,5.62
2022-11-16T07:15:16.058Z,5.62
2022-11-16T07:16:16.302Z,11.25
2022-11-16T07:17:16.555Z,11.25
2022-11-16T07:18:16.812Z,11.25
2022-11-16T07:19:17.060Z,11.25
2022-11-16T07:20:17.350Z,11.25
2022-11-16T07:21:17.592Z,11.25
2022-11-16T07:22:17.851Z,11.25
2022-11-16T07:23:18.094Z,11.25
2022-11-16T07:24:18.353Z,11.25
2022-11-16T07:25:18.611Z,11.25
2022-11-16T07:26:18.872Z,11.25
2022-11-16T07:27:19.113Z,11.25
2022-11-16T07:28:19.381Z,11.25
2022-11-16T07:29:19.659Z,11.25
2022-11-16T07:30:19.892Z,11.25
2022-11-16T07:31:20.126Z,11.25
2022-11-16T07:32:20.382Z,11.25
2022-11-16T07:33:20.625Z,11.25
2022-11-16T07:34:20.884Z,11.25
2022-11-16T07:35:21.153Z,11.25
2022-11-16T07:36:21.395Z,11.25
2022-11-16T07:37:21.653Z,11.25
2022-11-16T07:38:21.913Z,11.25
2022-11-16T07:39:22.165Z,11.25
2022-11-16T07:40:22.436Z,11.25
2022-11-16T07:41:22.715Z,11.25
2022-11-16T07:42:22.965Z,11.25
2022-11-16T07:43:23.215Z,11.25
2022-11-16T07:44:23.486Z,11.25
2022-11-16T07:45:23.755Z,11.25
2022-11-16T07:47:25.236Z,11.25
2022-11-16T07:48:24.548Z,16.88
2022-11-16T07:49:24.796Z,16.88
2022-11-16T07:50:25.076Z,16.88
2022-11-16T07:51:25.326Z,16.88
2022-11-16T07:52:25.601Z,16.88
2022-11-16T07:53:25.847Z,16.88
2022-11-16T07:54:26.195Z,16.88
2022-11-16T07:55:26.465Z,16.88
2022-11-16T07:56:26.720Z,16.88
2022-11-16T07:57:26.969Z,16.88
2022-11-16T07:58:27.228Z,16.88
2022-11-16T07:59:27.478Z,16.88
2022-11-16T08:00:27.732Z,16.88
2022-11-16T08:01:28.011Z,16.88
2022-11-16T08:02:28.258Z,16.88
2022-11-16T08:03:28.519Z,16.88
2022-11-16T08:04:28.787Z,16.88
2022-11-16T08:05:29.040Z,16.88
2022-11-16T08:06:29.281Z,16.88
2022-11-16T08:07:29.590Z,16.88
2022-11-16T08:08:29.847Z,16.88
2022-11-16T08:09:30.123Z,11.25
2022-11-16T08:10:30.527Z,11.25
2022-11-16T08:11:30.630Z,11.25
2022-11-16T08:12:30.876Z,11.25
2022-11-16T08:13:31.128Z,11.25
2022-11-16T08:14:31.381Z,11.25
2022-11-16T08:15:31.653Z,11.25
2022-11-16T08:16:31.891Z,11.25
2022-11-16T08:17:32.145Z,11.25
2022-11-16T08:18:32.783Z,11.25
2022-11-16T08:19:32.747Z,11.25
2022-11-16T08:20:32.993Z,11.25
2022-11-16T08:21:33.255Z,11.25
2022-11-16T08:22:33.513Z,11.25
2022-11-16T08:23:33.754Z,11.25
2022-11-16T08:24:34.014Z,11.25
2022-11-16T08:25:34.285Z,16.88
2022-11-16T08:26:34.549Z,16.88
2022-11-16T08:27:34.786Z,16.88
2022-11-16T08:28:35.381Z,16.88
2022-11-16T08:29:35.294Z,16.88
2022-11-16T08:30:35.559Z,16.88
2022-11-16T08:31:35.828Z,16.88
2022-11-16T08:32:36.076Z,16.88
2022-11-16T08:33:36.336Z,16.88
2022-11-16T08:34:36.596Z,16.88
2022-11-16T08:35:36.916Z,16.88
2022-11-16T08:36:37.197Z,16.88
2022-11-16T08:37:37.444Z,16.88
2022-11-16T08:38:37.725Z,16.88
2022-11-16T08:39:38.046Z,16.88
2022-11-16T08:40:38.294Z,16.88
2022-11-16T08:41:38.540Z,16.88
2022-11-16T08:42:43.495Z,16.88
2022-11-16T08:43:40.069Z,22.50
2022-11-16T08:44:39.368Z,22.50
2022-11-16T08:45:39.627Z,22.50
2022-11-16T08:46:39.900Z,22.50
2022-11-16T08:47:40.157Z,22.50
2022-11-16T08:48:40.391Z,22.50
2022-11-16T08:49:44.004Z,16.88
2022-11-16T08:51:10.429Z,16.88
2022-11-16T08:51:42.206Z,16.88
2022-11-16T08:52:41.531Z,22.50
2022-11-16T08:53:41.801Z,22.50
2022-11-16T08:54:42.070Z,16.88
2022-11-16T08:55:42.501Z,22.50
2022-11-16T08:56:44.060Z,22.50
2022-11-16T08:57:42.909Z,28.12
2022-11-16T08:58:43.154Z,28.12
2022-11-16T08:59:43.432Z,28.12
2022-11-16T09:00:43.700Z,28.12
2022-11-16T09:01:44.043Z,22.50
2022-11-16T09:02:44.288Z,22.50
2022-11-16T09:03:44.555Z,22.50
2022-11-16T09:04:44.813Z,22.50
2022-11-16T09:05:45.107Z,22.50
2022-11-16T09:06:45.337Z,22.50
2022-11-16T09:07:45.587Z,22.50
2022-11-16T09:08:46.053Z,28.12
2022-11-16T09:09:46.161Z,22.50
2022-11-16T09:10:46.511Z,22.50
2022-11-16T09:11:46.669Z,28.12
2022-11-16T09:12:46.944Z,28.12
2022-11-16T09:13:47.214Z,22.50
2022-11-16T09:14:47.463Z,28.12
2022-11-16T09:15:47.751Z,28.12
2022-11-16T09:16:48.003Z,28.12
2022-11-16T09:17:48.284Z,33.75
2022-11-16T09:18:48.554Z,28.12
2022-11-16T09:19:48.838Z,28.12
2022-11-16T09:20:49.104Z,28.12
2022-11-16T09:21:49.474Z,28.12
2022-11-16T09:22:49.628Z,28.12
2022-11-16T09:23:49.886Z,33.75
2022-11-16T09:24:50.147Z,28.12
2022-11-16T09:25:50.423Z,28.12
2022-11-16T09:26:50.669Z,33.75
2022-11-16T09:27:50.936Z,33.75
2022-11-16T09:28:51.208Z,33.75
2022-11-16T09:29:51.447Z,33.75
2022-11-16T09:30:51.728Z,33.75
2022-11-16T09:31:51.981Z,33.75
2022-11-16T09:32:52.257Z,39.38
2022-11-16T09:33:52.523Z,33.75
2022-11-16T09:34:52.766Z,33.75
2022-11-16T09:35:53.048Z,33.75
2022-11-16T09:36:53.307Z,33.75
2022-11-16T09:37:53.570Z,33.75
2022-11-16T09:39:25.749Z,33.75
2022-11-16T09:39:55.159Z,33.75
2022-11-16T09:40:54.481Z,33.75
2022-11-16T09:41:54.742Z,39.38
2022-11-16T09:42:55.012Z,33.75
2022-11-16T09:43:55.260Z,33.75
2022-11-16T09:44:55.519Z,33.75
2022-11-16T09:45:55.801Z,33.75
2022-11-16T09:46:56.077Z,39.38
2022-11-16T09:47:56.353Z,39.38
2022-11-16T09:48:56.632Z,39.38
2022-11-16T09:50:02.715Z,39.38
2022-11-16T09:50:58.152Z,39.38
2022-11-16T09:51:57.492Z,39.38
2022-11-16T09:52:57.752Z,39.38
2022-11-16T09:53:58.051Z,45.00
2022-11-16T09:54:58.333Z,45.00
2022-11-16T09:55:58.812Z,50.62
2022-11-16T09:56:58.920Z,50.62
2022-11-16T09:57:59.182Z,50.62
2022-11-16T09:58:59.464Z,50.62
2022-11-16T09:59:59.745Z,45.00
2022-11-16T10:01:00.243Z,45.00
2022-11-16T10:02:00.282Z,45.00
2022-11-16T10:03:00.545Z,45.00
2022-11-16T10:04:00.815Z,45.00
2022-11-16T10:05:01.104Z,45.00
2022-11-16T10:06:01.385Z,45.00
2022-11-16T10:07:01.704Z,45.00
2022-11-16T10:08:01.992Z,50.62
2022-11-16T10:09:02.274Z,45.00
2022-11-16T10:10:02.521Z,45.00
2022-11-16T10:11:02.806Z,45.00
2022-11-16T10:12:03.071Z,45.00
2022-11-16T10:13:03.341Z,45.00
2022-11-16T10:14:04.471Z,45.00
2022-11-16T10:15:03.892Z,39.38
2022-11-16T10:16:04.167Z,39.38
2022-11-16T10:17:04.444Z,39.38
2022-11-16T10:18:04.718Z,39.38
2022-11-16T10:19:06.436Z,39.38
2022-11-16T10:20:05.272Z,39.38
2022-11-16T10:21:05.547Z,33.75
2022-11-16T10:22:05.818Z,33.75
2022-11-16T10:23:06.082Z,39.38
2022-11-16T10:24:06.377Z,39.38
2022-11-16T10:25:06.638Z,39.38
2022-11-16T10:26:07.013Z,39.38
2022-11-16T10:27:07.166Z,39.38
2022-11-16T10:28:07.429Z,33.75
2022-11-16T10:29:07.688Z,39.38
2022-11-16T10:30:07.953Z,39.38
2022-11-16T10:31:08.220Z,39.38
2022-11-16T10:32:08.500Z,33.75
2022-11-16T10:33:11.346Z,39.38
2022-11-16T10:34:09.011Z,39.38
2022-11-16T10:35:09.279Z,39.38
2022-11-16T10:36:09.633Z,39.38
2022-11-16T10:37:09.892Z,45.00
2022-11-16T10:38:10.152Z,45.00
2022-11-16T10:39:10.421Z,45.00
2022-11-16T10:40:10.702Z,50.62
2022-11-16T10:41:10.983Z,45.00
2022-11-16T10:42:11.253Z,45.00
2022-11-16T10:43:11.519Z,45.00
2022-11-16T10:44:11.773Z,45.00
2022-11-16T10:45:12.034Z,45.00
2022-11-16T10:46:12.334Z,45.00
2022-11-16T10:47:12.598Z,45.00
2022-11-16T10:48:12.884Z,45.00
2022-11-16T10:49:13.164Z,45.00
2022-11-16T10:50:13.421Z,45.00
2022-11-16T10:51:13.686Z,45.00
2022-11-16T10:52:13.995Z,45.00
2022-11-16T10:53:14.235Z,45.00
2022-11-16T10:54:14.505Z,45.00
2022-11-16T10:55:14.766Z,45.00
2022-11-16T10:56:15.062Z,39.38
2022-11-16T10:57:15.323Z,45.00
2022-11-16T10:58:23.127Z,45.00
2022-11-16T10:59:15.902Z,50.62
2022-11-16T11:00:19.655Z,45.00
2022-11-16T11:01:17.416Z,45.00
2022-11-16T11:02:16.647Z,45.00
2022-11-16T11:03:16.936Z,45.00
2022-11-16T11:04:17.260Z,50.62
2022-11-16T11:05:17.556Z,45.00
2022-11-16T11:06:17.827Z,50.62
2022-11-16T11:07:18.124Z,50.62
2022-11-16T11:08:18.388Z,45.00
2022-11-16T11:09:18.692Z,45.00
2022-11-16T11:10:18.960Z,45.00
2022-11-16T11:11:19.290Z,39.38
2022-11-16T11:12:19.596Z,39.38
2022-11-16T11:13:19.889Z,45.00
2022-11-16T11:14:20.186Z,39.38
2022-11-16T11:15:25.513Z,39.38
2022-11-16T11:16:21.852Z,39.38
2022-11-16T11:17:21.174Z,39.38
2022-11-16T11:18:21.342Z,45.00
2022-11-16T11:19:21.666Z,45.00
2022-11-16T11:20:22.718Z,45.00
2022-11-16T11:21:22.323Z,45.00
2022-11-16T11:22:22.479Z,45.00
2022-11-16T11:23:22.732Z,45.00
2022-11-16T11:24:43.871Z,45.00
2022-11-16T11:25:24.251Z,45.00
2022-11-16T11:26:23.592Z,45.00
2022-11-16T11:27:23.846Z,45.00
2022-11-16T11:28:24.123Z,45.00
2022-11-16T11:29:24.424Z,39.38
2022-11-16T11:30:24.675Z,45.00
2022-11-16T11:31:24.913Z,45.00
2022-11-16T11:32:25.184Z,39.38
2022-11-16T11:33:25.467Z,39.38
2022-11-16T11:34:25.713Z,39.38
2022-11-16T11:35:25.957Z,39.38
2022-11-16T11:36:26.251Z,39.38
2022-11-16T11:37:26.497Z,39.38
2022-11-16T11:38:26.756Z,39.38
2022-11-16T11:39:27.102Z,45.00
2022-11-16T11:40:27.414Z,45.00
2022-11-16T11:41:27.695Z,39.38
2022-11-16T11:42:27.937Z,45.00
2022-11-16T11:43:28.285Z,45.00
2022-11-16T11:44:28.506Z,50.62
2022-11-16T11:45:28.692Z,45.00
2022-11-16T11:46:56.131Z,45.00
2022-11-16T11:48:30.507Z,45.00
2022-11-16T11:49:33.630Z,45.00
2022-11-16T11:50:30.038Z,50.62
2022-11-16T11:51:30.289Z,45.00
2022-11-16T11:52:30.528Z,50.62
2022-11-16T11:53:30.951Z,45.00
2022-11-16T11:54:31.151Z,45.00
2022-11-16T11:55:31.408Z,39.38
2022-11-16T11:56:31.695Z,39.38
2022-11-16T11:57:31.960Z,39.38
2022-11-16T11:58:32.217Z,39.38
2022-11-16T11:59:32.477Z,33.75
2022-11-16T12:00:32.743Z,39.38
2022-11-16T12:01:33.080Z,39.38
2022-11-16T12:02:33.340Z,39.38
2022-11-16T12:03:34.001Z,33.75
2022-11-16T12:04:33.915Z,33.75
2022-11-16T12:05:34.163Z,33.75
2022-11-16T12:06:34.437Z,33.75
2022-11-16T12:07:34.981Z,33.75
2022-11-16T12:08:35.159Z,33.75
2022-11-16T12:09:35.367Z,33.75
2022-11-16T12:10:35.611Z,39.38
2022-11-16T12:11:35.893Z,39.38
2022-11-16T12:12:36.192Z,39.38
2022-11-16T12:13:36.792Z,33.75
2022-11-16T12:14:36.785Z,39.38
2022-11-16T12:15:37.051Z,33.75
2022-11-16T12:16:37.309Z,28.12
2022-11-16T12:17:37.572Z,22.50
2022-11-16T12:18:37.884Z,28.12
2022-11-16T12:19:38.125Z,22.50
2022-11-16T12:20:38.376Z,28.12
2022-11-16T12:21:38.793Z,28.12
2022-11-16T12:22:38.899Z,28.12
2022-11-16T12:23:39.137Z,28.12
2022-11-16T12:24:39.428Z,22.50
2022-11-16T12:25:39.666Z,22.50
2022-11-16T12:26:39.935Z,22.50
2022-11-16T12:27:40.217Z,22.50
2022-11-16T12:28:40.483Z,22.50
2022-11-16T12:29:40.738Z,22.50
2022-11-16T12:30:41.081Z,22.50
2022-11-16T12:31:41.246Z,22.50
2022-11-16T12:32:41.527Z,22.50
2022-11-16T12:33:41.767Z,22.50
2022-11-16T12:34:41.996Z,22.50
2022-11-16T12:35:42.293Z,22.50
2022-11-16T12:36:42.570Z,28.12
2022-11-16T12:37:42.813Z,28.12
2022-11-16T12:38:43.057Z,28.12
2022-11-16T12:39:43.344Z,28.12
2022-11-16T12:40:43.592Z,28.12
2022-11-16T12:41:43.870Z,28.12
2022-11-16T12:42:44.090Z,28.12
2022-11-16T12:43:44.343Z,33.75
2022-11-16T12:44:45.519Z,33.75
2022-11-16T12:45:44.814Z,33.75
2022-11-16T12:46:45.064Z,28.12
2022-11-16T12:47:45.302Z,28.12
2022-11-16T12:48:45.552Z,28.12
2022-11-16T12:49:45.791Z,28.12
2022-11-16T12:50:46.027Z,28.12
2022-11-16T12:51:46.322Z,28.12
2022-11-16T12:52:46.543Z,28.12
2022-11-16T12:53:46.840Z,28.12
2022-11-16T12:55:10.963Z,28.12
2022-11-16T12:55:48.392Z,33.75
2022-11-16T12:56:49.309Z,28.12
2022-11-16T12:57:48.133Z,28.12
2022-11-16T12:58:48.303Z,33.75
2022-11-16T13:00:04.822Z,33.75
2022-11-16T13:00:48.772Z,28.12
2022-11-16T13:02:00.964Z,28.12
2022-11-16T13:02:50.455Z,28.12
2022-11-16T13:03:49.780Z,28.12
2022-11-16T13:04:50.140Z,28.12
2022-11-16T13:05:50.389Z,28.12
2022-11-16T13:06:50.685Z,28.12
2022-11-16T13:07:50.944Z,28.12
2022-11-16T13:08:51.198Z,28.12
2022-11-16T13:09:51.476Z,28.12
2022-11-16T13:10:51.698Z,22.50
2022-11-16T13:11:52.155Z,22.50